createdAt,value
2023-02-24T00:01:52.803Z,8.85
2023-02-24T00:04:21.090Z,8.72
2023-02-24T00:06:48.074Z,8.60
2023-02-24T00:09:16.897Z,8.19
2023-02-24T00:11:46.781Z,8.25
2023-02-24T00:14:19.268Z,7.95
2023-02-24T00:16:47.338Z,8.24
2023-02-24T00:19:19.449Z,8.18
2023-02-24T00:21:46.447Z,8.13
2023-02-24T00:24:14.025Z,8.15
2023-02-24T00:26:40.838Z,8.08
2023-02-24T00:29:11.260Z,8.02
2023-02-24T00:31:42.940Z,7.73
2023-02-24T00:34:12.772Z,7.81
2023-02-24T00:36:39.942Z,7.82
2023-02-24T00:39:11.850Z,7.89
2023-02-24T00:41:43.359Z,8.04
2023-02-24T00:44:13.871Z,7.82
2023-02-24T00:46:44.736Z,7.81
2023-02-24T00:49:19.501Z,7.70
2023-02-24T00:51:48.985Z,7.62
2023-02-24T00:54:16.975Z,7.70
2023-02-24T00:56:45.425Z,7.77
2023-02-24T00:59:14.436Z,7.65
2023-02-24T01:01:42.212Z,7.44
2023-02-24T01:04:12.430Z,7.36
2023-02-24T01:06:51.180Z,7.58
2023-02-24T01:09:21.152Z,7.48
2023-02-24T01:12:18.237Z,7.66
2023-02-24T01:14:49.594Z,7.76
2023-02-24T01:17:18.425Z,7.83
2023-02-24T01:19:47.376Z,7.93
2023-02-24T01:22:15.314Z,7.93
2023-02-24T01:24:43.481Z,8.04
2023-02-24T01:27:12.635Z,7.87
2023-02-24T01:29:39.635Z,7.90
2023-02-24T01:32:07.969Z,7.95
2023-02-24T01:34:35.133Z,7.90
2023-02-24T01:37:02.112Z,7.94
2023-02-24T01:39:28.880Z,8.17
2023-02-24T01:41:56.005Z,7.79
2023-02-24T01:44:24.097Z,7.99
2023-02-24T01:46:53.283Z,8.18
2023-02-24T01:49:29.815Z,8.26
2023-02-24T01:52:09.579Z,8.27
2023-02-24T01:54:43.856Z,8.24
2023-02-24T01:57:16.654Z,8.25
2023-02-24T01:59:46.037Z,8.20
2023-02-24T02:02:14.847Z,7.78
2023-02-24T02:05:07.034Z,8.12
2023-02-24T02:07:33.768Z,7.68
2023-02-24T02:10:04.165Z,7.89
2023-02-24T02:12:37.206Z,8.12
2023-02-24T02:15:06.751Z,7.96
2023-02-24T02:17:51.398Z,7.78
2023-02-24T02:20:27.165Z,7.96
2023-02-24T02:23:21.799Z,8.03
2023-02-24T02:26:32.627Z,8.13
2023-02-24T02:29:23.047Z,8.18
2023-02-24T02:32:04.139Z,8.07
2023-02-24T02:34:53.804Z,8.07
2023-02-24T02:37:34.766Z,7.92
2023-02-24T02:40:42.587Z,8.19
2023-02-24T02:43:25.967Z,8.30
2023-02-24T02:45:59.637Z,8.32
2023-02-24T02:48:41.285Z,8.23
2023-02-24T02:51:11.423Z,8.24
2023-02-24T02:53:56.711Z,8.32
2023-02-24T02:56:30.990Z,8.26
2023-02-24T02:59:00.647Z,8.25
2023-02-24T03:01:32.260Z,8.23
2023-02-24T03:04:04.779Z,8.00
2023-02-24T03:06:35.154Z,7.90
2023-02-24T03:09:15.869Z,7.94
2023-02-24T03:11:48.271Z,8.10
2023-02-24T03:14:18.884Z,8.12
2023-02-24T03:16:49.419Z,8.23
2023-02-24T03:19:21.226Z,8.20
2023-02-24T03:22:01.425Z,8.28
2023-02-24T03:24:28.078Z,8.15
2023-02-24T03:27:10.951Z,8.26
2023-02-24T03:29:39.823Z,8.33
2023-02-24T03:32:33.511Z,8.29
2023-02-24T03:35:11.127Z,8.35
2023-02-24T03:37:37.819Z,8.26
2023-02-24T03:40:14.741Z,8.29
2023-02-24T03:42:44.925Z,8.14
2023-02-24T03:45:13.202Z,7.97
2023-02-24T03:47:41.190Z,8.09
2023-02-24T03:50:18.567Z,7.95
2023-02-24T03:53:01.639Z,7.79
2023-02-24T03:56:00.529Z,7.93
2023-02-24T03:58:38.950Z,7.85
2023-02-24T04:01:26.148Z,7.68
2023-02-24T04:04:10.707Z,7.66
2023-02-24T04:06:56.347Z,7.84
2023-02-24T04:09:34.877Z,7.77
2023-02-24T04:12:18.893Z,7.66
2023-02-24T04:14:58.621Z,7.73
2023-02-24T04:17:34.612Z,7.91
2023-02-24T04:20:18.288Z,7.77
2023-02-24T04:22:49.777Z,7.87
2023-02-24T04:25:24.424Z,7.95
2023-02-24T04:27:56.380Z,7.97
2023-02-24T04:30:26.842Z,7.90
2023-02-24T04:32:54.143Z,7.92
2023-02-24T04:35:22.758Z,7.96
2023-02-24T04:37:51.048Z,7.85
2023-02-24T04:40:22.218Z,7.58
2023-02-24T04:42:52.040Z,7.59
2023-02-24T04:45:28.211Z,7.51
2023-02-24T04:48:00.893Z,7.54
2023-02-24T04:50:34.225Z,7.69
2023-02-24T04:53:02.030Z,7.89
2023-02-24T04:55:33.335Z,7.70
2023-02-24T04:58:01.443Z,7.59
2023-02-24T05:00:33.542Z,7.55
2023-02-24T05:03:03.758Z,7.35
2023-02-24T05:05:33.639Z,7.29
2023-02-24T05:08:08.897Z,7.18
2023-02-24T05:10:44.234Z,7.31
2023-02-24T05:13:17.772Z,7.18
2023-02-24T05:15:46.044Z,6.91
2023-02-24T05:18:17.205Z,7.07
2023-02-24T05:21:04.808Z,6.95
2023-02-24T05:23:34.298Z,7.07
2023-02-24T05:26:02.861Z,7.07
2023-02-24T05:28:32.238Z,6.92
2023-02-24T05:31:11.275Z,6.88
2023-02-24T05:33:38.907Z,6.89
2023-02-24T05:36:08.798Z,6.56
2023-02-24T05:38:38.344Z,6.74
2023-02-24T05:41:18.015Z,6.82
2023-02-24T05:43:48.291Z,6.88
2023-02-24T05:46:19.422Z,6.94
2023-02-24T05:48:51.249Z,6.92
2023-02-24T05:51:18.136Z,6.79
2023-02-24T05:53:44.803Z,6.73
2023-02-24T05:56:11.844Z,6.78
2023-02-24T05:58:39.348Z,6.69
2023-02-24T06:01:16.541Z,6.67
2023-02-24T06:03:48.037Z,6.70
2023-02-24T06:06:16.665Z,6.69
2023-02-24T06:08:50.137Z,6.58
2023-02-24T06:11:19.330Z,6.42
2023-02-24T06:13:50.508Z,6.38
2023-02-24T06:16:18.559Z,6.21
2023-02-24T06:18:49.489Z,6.43
2023-02-24T06:21:16.492Z,6.49
2023-02-24T06:23:43.103Z,6.47
2023-02-24T06:26:19.547Z,6.35
2023-02-24T06:28:48.064Z,6.48
2023-02-24T06:31:15.203Z,6.51
2023-02-24T06:33:42.368Z,6.55
2023-02-24T06:36:09.271Z,6.51
2023-02-24T06:38:36.917Z,6.51
2023-02-24T06:41:10.913Z,6.47
2023-02-24T06:43:43.464Z,6.58
2023-02-24T06:46:12.541Z,6.58
2023-02-24T06:48:39.390Z,6.62
2023-02-24T06:51:07.403Z,6.65
2023-02-24T06:53:43.218Z,6.57
2023-02-24T06:56:19.920Z,6.67
2023-02-24T06:58:55.461Z,6.77
2023-02-24T07:01:26.321Z,6.68
2023-02-24T07:04:07.906Z,6.76
2023-02-24T07:06:38.359Z,6.87
2023-02-24T07:09:10.805Z,6.99
2023-02-24T07:11:38.418Z,6.99
2023-02-24T07:14:07.897Z,7.03
2023-02-24T07:16:35.773Z,7.07
2023-02-24T07:19:09.658Z,7.18
2023-02-24T07:21:43.415Z,7.26
2023-02-24T07:24:13.500Z,7.34
2023-02-24T07:26:42.244Z,7.46
2023-02-24T07:29:11.564Z,7.53
2023-02-24T07:31:39.551Z,7.56
2023-02-24T07:34:06.502Z,7.60
2023-02-24T07:36:39.003Z,7.67
2023-02-24T07:39:09.317Z,7.63
2023-02-24T07:41:37.125Z,7.54
2023-02-24T07:44:05.946Z,7.67
2023-02-24T07:46:33.521Z,7.62
2023-02-24T07:49:00.361Z,7.67
2023-02-24T07:51:29.480Z,7.45
2023-02-24T07:53:59.016Z,7.66
2023-02-24T07:56:27.987Z,7.89
2023-02-24T07:59:07.997Z,7.82
2023-02-24T08:01:39.477Z,7.92
2023-02-24T08:04:08.923Z,8.06
2023-02-24T08:06:46.193Z,8.08
2023-02-24T08:09:17.405Z,8.23
2023-02-24T08:11:52.187Z,8.43
2023-02-24T08:14:44.488Z,8.41
2023-02-24T08:17:12.430Z,8.32
2023-02-24T08:19:42.810Z,8.42
2023-02-24T08:22:20.313Z,7.99
2023-02-24T08:24:50.706Z,8.08
2023-02-24T08:27:20.303Z,8.32
2023-02-24T08:29:58.494Z,8.59
2023-02-24T08:32:26.513Z,8.63
2023-02-24T08:35:02.960Z,8.74
2023-02-24T08:37:34.510Z,8.65
2023-02-24T08:40:01.214Z,8.75
2023-02-24T08:42:34.760Z,8.66
2023-02-24T08:45:02.093Z,8.72
2023-02-24T08:47:31.130Z,8.73
2023-02-24T08:50:01.978Z,8.94
2023-02-24T08:52:30.206Z,9.06
2023-02-24T08:55:01.772Z,9.09
2023-02-24T08:57:28.451Z,9.22
2023-02-24T08:59:57.878Z,9.22
2023-02-24T09:02:29.419Z,9.32
2023-02-24T09:05:00.741Z,9.51
2023-02-24T09:07:35.409Z,9.47
2023-02-24T09:10:20.200Z,9.53
2023-02-24T09:12:49.183Z,9.43
2023-02-24T09:15:16.157Z,9.20
2023-02-24T09:17:44.903Z,9.18
2023-02-24T09:20:27.329Z,9.21
2023-02-24T09:23:07.276Z,9.02
2023-02-24T09:25:49.588Z,9.25
2023-02-24T09:28:24.609Z,9.26
2023-02-24T09:30:56.987Z,9.37
2023-02-24T09:33:25.203Z,9.56
2023-02-24T09:36:10.891Z,9.70
2023-02-24T09:38:56.001Z,9.88
2023-02-24T09:41:32.105Z,10.14
2023-02-24T09:44:18.348Z,10.30
2023-02-24T09:47:09.925Z,10.32
2023-02-24T09:49:59.231Z,9.81
2023-02-24T09:52:41.198Z,9.98
2023-02-24T09:55:27.419Z,9.82
2023-02-24T09:58:17.965Z,9.87
2023-02-24T10:00:53.678Z,9.96
2023-02-24T10:03:48.154Z,10.02
2023-02-24T10:06:25.298Z,10.09
2023-02-24T10:09:21.560Z,10.27
2023-02-24T10:11:55.008Z,10.52
2023-02-24T10:14:53.030Z,10.78
2023-02-24T10:17:24.170Z,10.92
2023-02-24T10:20:00.088Z,11.07
2023-02-24T10:22:54.842Z,11.25
2023-02-24T10:25:40.105Z,11.29
2023-02-24T10:28:23.231Z,11.55
2023-02-24T10:31:10.985Z,11.49
2023-02-24T10:33:45.384Z,11.21
2023-02-24T10:36:22.297Z,11.22
2023-02-24T10:38:50.810Z,10.93
2023-02-24T10:41:17.860Z,10.83
2023-02-24T10:43:58.387Z,11.21
2023-02-24T10:46:41.401Z,11.26
2023-02-24T10:49:15.808Z,11.18
2023-02-24T10:51:47.486Z,11.26
2023-02-24T10:54:33.566Z,11.32
2023-02-24T10:57:15.492Z,11.28
2023-02-24T11:00:18.633Z,11.45
2023-02-24T11:03:10.262Z,11.77
2023-02-24T11:05:44.410Z,11.80
2023-02-24T11:08:37.648Z,11.90
2023-02-24T11:11:20.056Z,12.19
2023-02-24T11:14:10.004Z,12.06
2023-02-24T11:17:09.019Z,11.43
2023-02-24T11:19:41.670Z,11.36
2023-02-24T11:22:14.219Z,11.27
2023-02-24T11:24:41.142Z,11.49
2023-02-24T11:27:10.079Z,11.55
2023-02-24T11:29:48.190Z,11.91
2023-02-24T11:32:17.530Z,11.87
2023-02-24T11:35:09.489Z,12.08
2023-02-24T11:37:43.664Z,12.31
2023-02-24T11:40:10.592Z,12.51
2023-02-24T11:43:07.396Z,12.67
2023-02-24T11:45:40.335Z,12.72
2023-02-24T11:48:25.260Z,12.33
2023-02-24T11:51:05.227Z,12.47
2023-02-24T11:53:47.846Z,12.54
2023-02-24T11:56:20.915Z,12.82
2023-02-24T11:59:09.189Z,12.94
2023-02-24T12:01:45.874Z,13.19
2023-02-24T12:04:18.012Z,13.11
2023-02-24T12:06:59.949Z,13.22
2023-02-24T12:09:32.684Z,12.75
2023-02-24T12:12:08.332Z,13.10
2023-02-24T12:14:40.026Z,13.09
2023-02-24T12:17:19.301Z,13.03
2023-02-24T12:20:20.108Z,13.38
2023-02-24T12:22:52.271Z,13.25
2023-02-24T12:25:25.333Z,13.01
2023-02-24T12:28:02.078Z,12.94
2023-02-24T12:30:49.047Z,12.45
2023-02-24T12:33:23.320Z,13.04
2023-02-24T12:36:36.187Z,13.27
2023-02-24T12:39:29.886Z,13.32
2023-02-24T12:42:15.182Z,13.76
2023-02-24T12:44:51.041Z,13.27
2023-02-24T12:47:27.069Z,13.48
2023-02-24T12:50:14.711Z,13.19
2023-02-24T12:52:47.471Z,13.53
2023-02-24T12:55:30.862Z,13.69
2023-02-24T12:58:02.357Z,13.86
2023-02-24T13:00:51.231Z,13.83
2023-02-24T13:03:45.384Z,13.89
2023-02-24T13:06:39.744Z,13.69
2023-02-24T13:09:22.586Z,13.83
2023-02-24T13:12:20.474Z,13.85
2023-02-24T13:14:48.171Z,13.88
2023-02-24T13:17:15.338Z,13.77
2023-02-24T13:19:43.827Z,13.80
2023-02-24T13:22:13.200Z,13.64
2023-02-24T13:24:43.004Z,13.39
2023-02-24T13:27:12.571Z,12.96
2023-02-24T13:30:01.384Z,13.17
2023-02-24T13:32:41.148Z,13.51
2023-02-24T13:35:16.954Z,13.68
2023-02-24T13:37:48.247Z,13.68
2023-02-24T13:40:16.603Z,13.75
2023-02-24T13:42:59.660Z,13.87
2023-02-24T13:45:30.166Z,13.99
2023-02-24T13:48:02.761Z,13.73
2023-02-24T13:50:44.180Z,14.00
2023-02-24T13:53:36.776Z,14.09
2023-02-24T13:56:18.412Z,13.76
2023-02-24T13:59:21.606Z,13.90
2023-02-24T14:01:50.749Z,13.81
2023-02-24T14:04:32.823Z,13.60
2023-02-24T14:07:02.542Z,13.48
2023-02-24T14:09:51.001Z,13.70
2023-02-24T14:12:25.369Z,13.99
2023-02-24T14:14:52.895Z,14.02
2023-02-24T14:17:30.616Z,14.20
2023-02-24T14:20:14.410Z,14.36
2023-02-24T14:22:56.369Z,14.31
2023-02-24T14:25:23.818Z,14.27
2023-02-24T14:27:53.391Z,14.28
2023-02-24T14:30:34.728Z,14.16
2023-02-24T14:33:02.981Z,14.27
2023-02-24T14:35:34.599Z,14.07
2023-02-24T14:38:02.501Z,13.68
2023-02-24T14:40:29.796Z,13.98
2023-02-24T14:42:57.749Z,14.04
2023-02-24T14:45:27.921Z,14.13
2023-02-24T14:47:55.993Z,14.27
2023-02-24T14:50:30.170Z,14.45
2023-02-24T14:53:03.606Z,14.52
2023-02-24T14:55:37.313Z,14.28
2023-02-24T14:58:17.028Z,14.53
2023-02-24T15:01:18.260Z,14.41
2023-02-24T15:03:56.010Z,14.38
2023-02-24T15:06:27.050Z,14.12
2023-02-24T15:09:00.278Z,13.03
2023-02-24T15:11:29.532Z,12.47
2023-02-24T15:14:00.554Z,12.98
2023-02-24T15:16:36.631Z,13.38
2023-02-24T15:19:03.727Z,13.60
2023-02-24T15:21:32.218Z,13.74
2023-02-24T15:24:19.674Z,13.51
2023-02-24T15:27:01.715Z,13.69
2023-02-24T15:29:31.042Z,13.75
2023-02-24T15:32:00.860Z,13.33
2023-02-24T15:34:31.161Z,13.17
2023-02-24T15:37:15.566Z,13.14
2023-02-24T15:39:44.381Z,12.91
2023-02-24T15:42:28.724Z,12.86
2023-02-24T15:45:19.248Z,13.03
2023-02-24T15:47:45.991Z,13.28
2023-02-24T15:50:14.205Z,13.25
2023-02-24T15:52:41.860Z,13.23
2023-02-24T15:55:15.052Z,13.29
2023-02-24T15:57:41.797Z,13.55
2023-02-24T16:00:14.631Z,13.34
2023-02-24T16:02:42.133Z,13.40
2023-02-24T16:05:15.961Z,12.83
2023-02-24T16:07:45.094Z,12.33
2023-02-24T16:10:19.088Z,12.43
2023-02-24T16:12:50.806Z,12.17
2023-02-24T16:15:24.021Z,11.80
2023-02-24T16:17:51.373Z,11.94
2023-02-24T16:20:31.618Z,12.31
2023-02-24T16:22:59.838Z,12.62
2023-02-24T16:25:27.615Z,12.66
2023-02-24T16:27:57.395Z,12.59
2023-02-24T16:30:26.885Z,12.70
2023-02-24T16:32:53.737Z,12.89
2023-02-24T16:35:20.526Z,12.88
2023-02-24T16:37:48.132Z,12.91
2023-02-24T16:40:17.838Z,13.03
2023-02-24T16:42:44.414Z,12.84
2023-02-24T16:45:11.404Z,12.75
2023-02-24T16:47:38.387Z,12.92
2023-02-24T16:50:06.774Z,12.77
2023-02-24T16:52:33.364Z,12.74
2023-02-24T16:55:02.088Z,12.89
2023-02-24T16:57:28.813Z,12.81
2023-02-24T16:59:55.434Z,12.77
2023-02-24T17:02:25.466Z,12.78
2023-02-24T17:04:52.145Z,12.71
2023-02-24T17:07:20.936Z,12.67
2023-02-24T17:09:47.583Z,12.50
2023-02-24T17:12:17.302Z,12.29
2023-02-24T17:14:43.887Z,12.33
2023-02-24T17:17:11.749Z,12.28
2023-02-24T17:19:39.128Z,12.13
2023-02-24T17:22:05.955Z,12.28
2023-02-24T17:24:32.627Z,12.38
2023-02-24T17:27:00.532Z,12.27
2023-02-24T17:29:27.777Z,12.29
2023-02-24T17:31:54.579Z,12.22
2023-02-24T17:34:23.974Z,12.18
2023-02-24T17:36:50.675Z,12.22
2023-02-24T17:39:17.366Z,12.20
2023-02-24T17:41:44.047Z,12.25
2023-02-24T17:44:10.626Z,12.24
2023-02-24T17:46:38.636Z,12.23
2023-02-24T17:49:05.470Z,12.34
2023-02-24T17:51:32.284Z,12.25
2023-02-24T17:53:59.000Z,12.27
2023-02-24T17:56:25.682Z,12.14
2023-02-24T17:58:55.455Z,12.21
2023-02-24T18:01:22.082Z,12.26
2023-02-24T18:03:48.820Z,12.19
2023-02-24T18:06:15.482Z,12.22
2023-02-24T18:08:42.169Z,12.18
2023-02-24T18:11:13.912Z,12.15
2023-02-24T18:13:40.574Z,11.99
2023-02-24T18:16:12.132Z,12.04
2023-02-24T18:18:38.842Z,12.04
2023-02-24T18:21:06.730Z,11.82
2023-02-24T18:23:34.007Z,11.85
2023-02-24T18:26:04.652Z,11.86
2023-02-24T18:28:31.804Z,11.82
2023-02-24T18:31:00.542Z,11.78
2023-02-24T18:33:27.781Z,11.50
2023-02-24T18:36:01.783Z,11.50
2023-02-24T18:38:29.330Z,11.42
2023-02-24T18:41:09.964Z,11.22
2023-02-24T18:43:36.691Z,11.17
2023-02-24T18:46:06.458Z,11.27
2023-02-24T18:48:34.665Z,11.37
2023-02-24T18:51:01.912Z,11.43
2023-02-24T18:53:30.865Z,11.45
2023-02-24T18:56:02.055Z,11.31
2023-02-24T18:58:30.646Z,11.14
2023-02-24T19:00:57.338Z,10.87
2023-02-24T19:03:24.459Z,10.58
2023-02-24T19:05:51.153Z,10.14
2023-02-24T19:08:18.231Z,9.22
2023-02-24T19:10:45.049Z,9.03
2023-02-24T19:13:11.831Z,8.85
2023-02-24T19:15:39.132Z,8.73
2023-02-24T19:18:06.410Z,8.79
2023-02-24T19:20:33.058Z,8.91
2023-02-24T19:22:59.769Z,8.89
2023-02-24T19:25:26.481Z,8.65
2023-02-24T19:27:54.016Z,8.26
2023-02-24T19:30:20.670Z,8.19
2023-02-24T19:32:47.478Z,7.91
2023-02-24T19:35:14.177Z,7.73
2023-02-24T19:37:40.857Z,7.64
2023-02-24T19:40:08.281Z,7.64
2023-02-24T19:42:34.896Z,7.41
2023-02-24T19:45:01.500Z,7.34
2023-02-24T19:47:28.187Z,7.31
2023-02-24T19:49:54.776Z,7.35
2023-02-24T19:52:21.374Z,7.34
2023-02-24T19:54:48.014Z,7.16
2023-02-24T19:57:14.702Z,7.19
2023-02-24T19:59:41.491Z,7.01
2023-02-24T20:02:10.342Z,7.04
2023-02-24T20:04:36.960Z,7.07
2023-02-24T20:07:03.660Z,7.06
2023-02-24T20:09:30.299Z,6.94
2023-02-24T20:11:59.051Z,6.84
2023-02-24T20:14:28.280Z,6.82
2023-02-24T20:16:55.358Z,6.99
2023-02-24T20:19:22.096Z,7.00
2023-02-24T20:21:48.775Z,6.96
2023-02-24T20:24:16.917Z,6.94
2023-02-24T20:26:49.663Z,6.85
2023-02-24T20:29:18.725Z,6.85
2023-02-24T20:31:46.478Z,6.83
2023-02-24T20:34:14.542Z,6.75
2023-02-24T20:36:41.714Z,6.60
2023-02-24T20:39:08.323Z,6.54
2023-02-24T20:41:35.113Z,6.56
2023-02-24T20:44:01.821Z,6.54
2023-02-24T20:46:30.963Z,6.45
2023-02-24T20:49:04.059Z,6.46
2023-02-24T20:51:32.135Z,6.52
2023-02-24T20:53:59.763Z,6.51
2023-02-24T20:56:28.984Z,6.55
2023-02-24T20:59:07.973Z,6.67
2023-02-24T21:01:36.182Z,6.70
2023-02-24T21:04:03.479Z,6.73
2023-02-24T21:06:30.872Z,6.64
2023-02-24T21:08:58.315Z,6.77
2023-02-24T21:11:25.381Z,6.90
2023-02-24T21:13:52.786Z,7.10
2023-02-24T21:16:21.008Z,7.10
2023-02-24T21:18:49.957Z,7.16
2023-02-24T21:21:17.578Z,7.15
2023-02-24T21:23:44.722Z,7.14
2023-02-24T21:26:12.447Z,7.16
2023-02-24T21:28:40.488Z,7.12
2023-02-24T21:31:19.074Z,7.12
2023-02-24T21:33:50.178Z,7.07
2023-02-24T21:36:16.867Z,7.16
2023-02-24T21:38:43.507Z,7.06
2023-02-24T21:41:14.959Z,7.06
2023-02-24T21:43:42.641Z,7.10
2023-02-24T21:46:09.445Z,7.22
2023-02-24T21:48:37.194Z,7.07
2023-02-24T21:51:09.484Z,7.11
2023-02-24T21:53:39.431Z,6.99
2023-02-24T21:56:27.799Z,7.01
2023-02-24T21:58:59.191Z,7.09
2023-02-24T22:01:32.325Z,6.99
2023-02-24T22:03:59.933Z,6.85
2023-02-24T22:06:30.252Z,7.02
2023-02-24T22:08:58.087Z,7.07
2023-02-24T22:11:24.745Z,6.89
2023-02-24T22:13:51.529Z,6.76
2023-02-24T22:16:21.191Z,6.61
2023-02-24T22:18:49.184Z,6.70
2023-02-24T22:21:18.686Z,6.60
2023-02-24T22:23:47.651Z,6.47
2023-02-24T22:26:15.394Z,6.59
2023-02-24T22:28:43.738Z,6.61
2023-02-24T22:31:12.808Z,6.77
2023-02-24T22:33:42.404Z,6.85
2023-02-24T22:36:15.694Z,6.85
2023-02-24T22:38:43.300Z,6.50
2023-02-24T22:41:20.731Z,6.22
2023-02-24T22:43:47.896Z,6.11
2023-02-24T22:46:21.328Z,5.98
2023-02-24T22:48:48.730Z,5.94
2023-02-24T22:51:15.318Z,5.99
2023-02-24T22:53:46.581Z,5.97
2023-02-24T22:56:15.361Z,5.82
2023-02-24T22:58:42.072Z,5.87
2023-02-24T23:01:10.971Z,5.92
2023-02-24T23:03:38.209Z,5.72
2023-02-24T23:06:08.220Z,5.71
2023-02-24T23:08:37.973Z,5.58
2023-02-24T23:11:08.646Z,5.77
2023-02-24T23:13:35.477Z,5.86
2023-02-24T23:16:03.630Z,5.69
2023-02-24T23:18:31.659Z,5.82
2023-02-24T23:21:05.406Z,6.00
2023-02-24T23:23:32.702Z,6.05
2023-02-24T23:25:59.681Z,5.88
2023-02-24T23:28:27.178Z,5.67
2023-02-24T23:30:54.919Z,5.86
2023-02-24T23:33:22.604Z,5.80
2023-02-24T23:35:49.926Z,5.70
2023-02-24T23:38:16.627Z,5.75
2023-02-24T23:40:50.601Z,5.85
2023-02-24T23:43:17.890Z,5.65
2023-02-24T23:45:44.692Z,5.53
2023-02-24T23:48:13.888Z,5.60
2023-02-24T23:50:42.529Z,5.67
2023-02-24T23:53:10.432Z,5.85
2023-02-24T23:55:40.886Z,5.62
2023-02-24T23:58:07.950Z,5.54
